Time;durP1;ratioP1;P1;durP2;ratioP2;P2;SDS_P1;SDS_P2;PMS_P1;PMS_P2;Temp;Humidity;BMP_temperature;BMP_pressure;BME280_temperature;BME280_humidity;BME280_pressure;Samples;Min_cycle;Max_cycle;Signal;HPM_P1;HPM_P2
2022/04/22 00:02:30;;;;;;;;;;;7.70;99.90;;;;;;4993251;28;20008;-72
2022/04/22 00:05:02;;;;;;;;;;;7.70;99.90;;;;;;5002369;28;19926;-70
2022/04/22 00:07:34;;;;;;;;;;;7.70;99.90;;;;;;4995382;28;19930;-69
2022/04/22 00:10:08;;;;;;;;;;;7.60;99.90;;;;;;5013140;28;19925;-71
2022/04/22 00:12:40;;;;;;;;;;;7.60;99.90;;;;;;4992263;28;19934;-70
2022/04/22 00:15:13;;;;;;;;;;;7.60;99.90;;;;;;4993299;28;19949;-70
2022/04/22 00:17:45;;;;;;;;;;;7.50;99.90;;;;;;5020451;28;20032;-70
2022/04/22 00:20:17;;;;;;;;;;;7.50;99.90;;;;;;5009721;28;19937;-70
2022/04/22 00:22:48;;;;;;;;;;;7.50;99.90;;;;;;4992770;28;19926;-70
2022/04/22 00:25:20;;;;;;;;;;;7.40;99.90;;;;;;5010146;28;19929;-70
2022/04/22 00:27:51;;;;;;;;;;;7.40;99.90;;;;;;5001613;28;19934;-69
2022/04/22 00:30:23;;;;;;;;;;;7.40;99.90;;;;;;4995935;28;19926;-71
2022/04/22 00:32:54;;;;;;;;;;;7.40;99.90;;;;;;4997552;28;19940;-70
2022/04/22 00:35:26;;;;;;;;;;;7.30;99.90;;;;;;4992791;28;20394;-71
2022/04/22 00:37:59;;;;;;;;;;;7.30;99.90;;;;;;4998270;28;20005;-71
2022/04/22 00:40:30;;;;;;;;;;;7.30;99.90;;;;;;4999386;28;19929;-71
2022/04/22 00:43:18;;;;;;;;;;;7.30;99.90;;;;;;4994705;28;19933;-71
2022/04/22 00:45:51;;;;;;;;;;;7.30;99.90;;;;;;5001812;28;20012;-71
2022/04/22 00:48:22;;;;;;;;;;;7.20;99.90;;;;;;5003965;28;20402;-70
2022/04/22 00:50:54;;;;;;;;;;;7.20;99.90;;;;;;5005873;28;20424;-71
2022/04/22 00:53:26;;;;;;;;;;;7.20;99.90;;;;;;4993767;28;19930;-70
2022/04/22 00:55:58;;;;;;;;;;;7.20;99.90;;;;;;4998458;28;19934;-71
2022/04/22 00:58:30;;;;;;;;;;;7.20;99.90;;;;;;4997711;28;20015;-71
2022/04/22 01:01:02;;;;;;;;;;;7.20;99.90;;;;;;4999147;28;19930;-71
2022/04/22 01:03:33;;;;;;;;;;;7.20;99.90;;;;;;4997788;28;19933;-71
2022/04/22 01:11:46;;;;;;;;;;;7.00;99.90;;;;;;5018511;28;19934;-69
2022/04/22 01:14:17;;;;;;;;;;;7.00;99.90;;;;;;5000660;28;19929;-71
2022/04/22 01:16:49;;;;;;;;;;;7.00;99.90;;;;;;5009281;28;19925;-71
2022/04/22 01:19:21;;;;;;;;;;;6.90;99.90;;;;;;5003174;28;20382;-71
2022/04/22 01:21:52;;;;;;;;;;;6.90;99.90;;;;;;4998810;28;20315;-71
2022/04/22 01:24:24;;;;;;;;;;;6.90;99.90;;;;;;5017957;28;19929;-71
2022/04/22 01:26:57;;;;;;;;;;;6.90;99.90;;;;;;5004487;28;20279;-71
2022/04/22 01:29:29;;;;;;;;;;;6.90;99.90;;;;;;5006812;28;19953;-71
2022/04/22 01:32:01;;;;;;;;;;;6.80;99.90;;;;;;5003317;28;19936;-71
2022/04/22 01:34:32;;;;;;;;;;;6.80;99.90;;;;;;4997598;28;19930;-71
2022/04/22 01:37:04;;;;;;;;;;;6.80;99.90;;;;;;5017007;28;20024;-72
2022/04/22 01:39:36;;;;;;;;;;;6.70;99.90;;;;;;5000059;28;19929;-71
2022/04/22 01:42:08;;;;;;;;;;;6.70;99.90;;;;;;5004051;28;19926;-71
2022/04/22 01:44:40;;;;;;;;;;;6.70;99.90;;;;;;5002170;28;20005;-72
2022/04/22 01:47:12;;;;;;;;;;;6.70;99.90;;;;;;4991921;28;19929;-71
2022/04/22 01:49:43;;;;;;;;;;;6.60;99.90;;;;;;4990628;28;19926;-70
2022/04/22 01:52:15;;;;;;;;;;;6.60;99.90;;;;;;4991758;28;19926;-71
2022/04/22 01:54:50;;;;;;;;;;;6.60;99.90;;;;;;4999481;28;19926;-71
2022/04/22 01:57:22;;;;;;;;;;;6.50;99.90;;;;;;4994218;28;19926;-71
2022/04/22 01:59:55;;;;;;;;;;;6.50;99.90;;;;;;5000818;28;19933;-71
2022/04/22 02:02:30;;;;;;;;;;;6.50;99.90;;;;;;4993430;28;20021;-71
2022/04/22 02:05:02;;;;;;;;;;;6.50;99.90;;;;;;4998193;28;19925;-71
2022/04/22 02:07:33;;;;;;;;;;;6.50;99.90;;;;;;5007124;28;19930;-71
2022/04/22 02:10:06;;;;;;;;;;;6.50;99.90;;;;;;5010522;28;20024;-71
2022/04/22 02:12:37;;;;;;;;;;;6.50;99.90;;;;;;5003807;28;19925;-71
2022/04/22 02:15:09;;;;;;;;;;;6.50;99.90;;;;;;4998892;28;20441;-71
2022/04/22 02:17:41;;;;;;;;;;;6.40;99.90;;;;;;5004940;28;19933;-71
2022/04/22 02:20:12;;;;;;;;;;;6.40;99.90;;;;;;5008064;28;19929;-71
2022/04/22 02:22:44;;;;;;;;;;;6.40;99.90;;;;;;5000202;28;19937;-71
2022/04/22 02:25:15;;;;;;;;;;;6.40;99.90;;;;;;4996324;28;19926;-71
2022/04/22 02:30:37;;;;;;;;;;;6.30;99.90;;;;;;4999542;28;20453;-71
2022/04/22 02:33:09;;;;;;;;;;;6.30;99.90;;;;;;5002689;28;19937;-71
2022/04/22 02:35:41;;;;;;;;;;;6.20;99.90;;;;;;4994997;28;19933;-72
2022/04/22 02:38:12;;;;;;;;;;;6.20;99.90;;;;;;4994962;28;19930;-72
2022/04/22 02:46:24;;;;;;;;;;;6.10;99.90;;;;;;5002969;28;19926;-72
2022/04/22 02:49:00;;;;;;;;;;;6.10;99.90;;;;;;4999603;28;19925;-70
2022/04/22 02:51:31;;;;;;;;;;;6.10;99.90;;;;;;5002043;28;19929;-71
2022/04/22 02:54:04;;;;;;;;;;;6.10;99.90;;;;;;5010305;28;19937;-72
2022/04/22 02:56:36;;;;;;;;;;;6.00;99.90;;;;;;5007229;28;19925;-72
2022/04/22 02:59:08;;;;;;;;;;;6.00;99.90;;;;;;5007444;28;19941;-71
2022/04/22 03:01:43;;;;;;;;;;;6.00;99.90;;;;;;4999256;28;19930;-71
2022/04/22 03:04:15;;;;;;;;;;;6.00;99.90;;;;;;5000334;28;19930;-71
2022/04/22 03:06:46;;;;;;;;;;;6.00;99.90;;;;;;4997365;28;19929;-72
2022/04/22 03:09:18;;;;;;;;;;;6.00;99.90;;;;;;5003601;28;20563;-71
2022/04/22 03:11:50;;;;;;;;;;;5.90;99.90;;;;;;5011204;28;20030;-70
2022/04/22 03:14:21;;;;;;;;;;;5.90;99.90;;;;;;5017343;28;20552;-71
2022/04/22 03:16:53;;;;;;;;;;;5.80;99.90;;;;;;4996827;28;19945;-71
2022/04/22 03:19:25;;;;;;;;;;;5.80;99.90;;;;;;5021511;28;19932;-71
2022/04/22 03:21:56;;;;;;;;;;;5.80;99.90;;;;;;4999727;28;19926;-70
2022/04/22 03:24:28;;;;;;;;;;;5.70;99.90;;;;;;5010582;28;20693;-72
2022/04/22 03:26:59;;;;;;;;;;;5.70;99.90;;;;;;5006206;28;19936;-71
2022/04/22 03:29:31;;;;;;;;;;;5.70;99.90;;;;;;5003341;28;19929;-71
2022/04/22 03:32:03;;;;;;;;;;;5.70;99.90;;;;;;5006616;28;19926;-71
2022/04/22 03:34:34;;;;;;;;;;;5.70;99.90;;;;;;4994402;28;20298;-71
2022/04/22 03:37:06;;;;;;;;;;;5.70;99.90;;;;;;4994660;28;19926;-71
2022/04/22 03:39:37;;;;;;;;;;;5.70;99.90;;;;;;5009049;28;19937;-71
2022/04/22 03:42:09;;;;;;;;;;;5.70;99.90;;;;;;5003929;28;19937;-76
2022/04/22 03:44:41;;;;;;;;;;;5.60;99.90;;;;;;5002031;28;19926;-72
2022/04/22 03:47:12;;;;;;;;;;;5.60;99.90;;;;;;5006632;28;19935;-71
2022/04/22 03:49:44;;;;;;;;;;;5.60;99.90;;;;;;5009045;28;19964;-71
2022/04/22 03:52:15;;;;;;;;;;;5.60;99.90;;;;;;5005710;28;19929;-71
2022/04/22 03:54:47;;;;;;;;;;;5.60;99.90;;;;;;5025991;28;20420;-71
2022/04/22 04:00:13;;;;;;;;;;;5.40;99.90;;;;;;4989390;28;19929;-71
2022/04/22 04:02:45;;;;;;;;;;;5.40;99.90;;;;;;5006016;28;20610;-71
2022/04/22 04:05:17;;;;;;;;;;;5.30;99.90;;;;;;5023423;28;19933;-72
2022/04/22 04:07:49;;;;;;;;;;;5.30;99.90;;;;;;5008644;28;20032;-71
2022/04/22 04:15:59;;;;;;;;;;;5.10;99.90;;;;;;5007268;28;19926;-71
2022/04/22 04:18:35;;;;;;;;;;;5.10;99.90;;;;;;5008431;28;20322;-70
2022/04/22 04:23:59;;;;;;;;;;;4.90;99.90;;;;;;4989678;28;19926;-71
2022/04/22 04:26:31;;;;;;;;;;;4.90;99.90;;;;;;5003751;28;19926;-71
2022/04/22 04:29:02;;;;;;;;;;;4.90;99.90;;;;;;5009639;28;19932;-71
2022/04/22 04:31:34;;;;;;;;;;;4.80;99.90;;;;;;5007839;28;20301;-71
2022/04/22 04:34:06;;;;;;;;;;;4.80;99.90;;;;;;5029643;28;19948;-72
2022/04/22 04:36:37;;;;;;;;;;;4.70;99.90;;;;;;5006854;28;19930;-71
2022/04/22 04:39:09;;;;;;;;;;;4.60;99.90;;;;;;5010362;28;19930;-71
2022/04/22 04:41:41;;;;;;;;;;;4.50;99.90;;;;;;5009162;28;19925;-71
2022/04/22 04:44:12;;;;;;;;;;;4.50;99.90;;;;;;4991953;28;20390;-71
2022/04/22 04:46:44;;;;;;;;;;;4.50;99.90;;;;;;5011065;28;19936;-71
2022/04/22 04:49:15;;;;;;;;;;;4.50;99.90;;;;;;5007400;28;19933;-71
2022/04/22 04:51:47;;;;;;;;;;;4.50;99.90;;;;;;5023120;28;19930;-71
2022/04/22 04:54:19;;;;;;;;;;;4.50;99.90;;;;;;5003743;28;19926;-71
2022/04/22 04:56:50;;;;;;;;;;;4.50;99.90;;;;;;5006622;28;20374;-71
2022/04/22 04:59:22;;;;;;;;;;;4.50;99.90;;;;;;5003738;28;19926;-71
2022/04/22 05:01:54;;;;;;;;;;;4.50;99.90;;;;;;5008690;28;20508;-70
2022/04/22 05:04:25;;;;;;;;;;;4.50;99.90;;;;;;5010346;28;20378;-71
2022/04/22 05:06:57;;;;;;;;;;;4.50;99.90;;;;;;5007906;28;19936;-71
2022/04/22 05:09:29;;;;;;;;;;;4.60;99.90;;;;;;5008424;28;20039;-71
2022/04/22 05:12:01;;;;;;;;;;;4.60;99.90;;;;;;5001435;28;19926;-71
2022/04/22 05:14:32;;;;;;;;;;;4.60;99.90;;;;;;5007455;28;19936;-71
2022/04/22 05:16:59;;;;;;;;;;;4.60;99.90;;;;;;5006715;28;19925;-70
2022/04/22 05:19:31;;;;;;;;;;;4.60;99.90;;;;;;5025305;28;20013;-71
2022/04/22 05:22:02;;;;;;;;;;;4.60;99.90;;;;;;5008134;28;19930;-71
2022/04/22 05:24:37;;;;;;;;;;;4.70;99.90;;;;;;5006158;28;19930;-71
2022/04/22 05:27:09;;;;;;;;;;;4.70;99.90;;;;;;5010037;28;20005;-71
2022/04/22 05:32:36;;;;;;;;;;;4.90;99.90;;;;;;5009350;28;19925;-71
2022/04/22 05:35:08;;;;;;;;;;;4.90;99.90;;;;;;5032221;28;19930;-72
2022/04/22 05:37:43;;;;;;;;;;;5.00;99.90;;;;;;5009350;28;19929;-71
2022/04/22 05:40:16;;;;;;;;;;;5.00;99.90;;;;;;4998166;28;20387;-71
2022/04/22 05:42:49;;;;;;;;;;;5.10;99.90;;;;;;5001307;28;20538;-72
2022/04/22 05:45:16;;;;;;;;;;;5.10;99.90;;;;;;5004314;28;20398;-70
2022/04/22 05:47:48;;;;;;;;;;;5.10;99.90;;;;;;5025099;28;19929;-71
2022/04/22 05:50:20;;;;;;;;;;;5.20;99.90;;;;;;5006234;28;20183;-71
2022/04/22 05:52:52;;;;;;;;;;;5.20;99.90;;;;;;5004841;28;20032;-71
2022/04/22 05:55:25;;;;;;;;;;;5.20;99.90;;;;;;5002356;28;20195;-71
2022/04/22 05:57:59;;;;;;;;;;;5.30;99.90;;;;;;5005553;28;20310;-72
2022/04/22 06:00:31;;;;;;;;;;;5.30;99.90;;;;;;5007625;28;20302;-72
2022/04/22 06:03:03;;;;;;;;;;;5.30;99.90;;;;;;5004512;28;19932;-71
2022/04/22 06:05:35;;;;;;;;;;;5.40;99.90;;;;;;5023178;28;19939;-72
2022/04/22 06:10:58;;;;;;;;;;;5.50;99.90;;;;;;5014975;28;19930;-71
2022/04/22 06:13:30;;;;;;;;;;;5.50;99.90;;;;;;5012958;28;20075;-71
2022/04/22 06:16:05;;;;;;;;;;;5.60;99.90;;;;;;5010426;28;19930;-72
2022/04/22 06:18:37;;;;;;;;;;;5.70;99.90;;;;;;5015444;28;20704;-71
2022/04/22 06:21:08;;;;;;;;;;;5.70;99.90;;;;;;5008972;28;20374;-72
2022/04/22 06:23:35;;;;;;;;;;;5.80;99.90;;;;;;5010112;28;19925;-72
2022/04/22 06:26:07;;;;;;;;;;;5.80;99.90;;;;;;5011938;28;19936;-71
2022/04/22 06:28:41;;;;;;;;;;;5.90;99.90;;;;;;5014924;28;19980;-71
2022/04/22 06:31:08;;;;;;;;;;;6.00;99.90;;;;;;5014169;28;20377;-72
2022/04/22 06:33:40;;;;;;;;;;;6.00;99.90;;;;;;5005612;28;19988;-72
2022/04/22 06:36:13;;;;;;;;;;;6.10;99.90;;;;;;5022558;28;19933;-72
2022/04/22 06:38:57;;;;;;;;;;;6.20;99.90;;;;;;5003238;28;19930;-72
2022/04/22 06:47:18;;;;;;;;;;;6.40;99.90;;;;;;4988415;28;20520;-71
2022/04/22 06:49:44;;;;;;;;;;;6.50;99.90;;;;;;5000369;28;20016;-72
2022/04/22 06:52:13;;;;;;;;;;;6.50;99.90;;;;;;5009670;28;19929;-72
2022/04/22 06:54:40;;;;;;;;;;;6.60;99.90;;;;;;5007908;28;20363;-76
2022/04/22 06:57:12;;;;;;;;;;;6.70;99.90;;;;;;5009578;28;19926;-74
2022/04/22 06:59:38;;;;;;;;;;;6.80;99.90;;;;;;5010708;28;20302;-73
2022/04/22 07:02:10;;;;;;;;;;;6.90;99.90;;;;;;5006765;28;20353;-72
2022/04/22 07:04:37;;;;;;;;;;;7.00;99.90;;;;;;4992488;28;19930;-73
2022/04/22 07:07:09;;;;;;;;;;;7.10;99.90;;;;;;5024717;28;19965;-72
2022/04/22 07:09:40;;;;;;;;;;;7.20;99.90;;;;;;5009050;28;19925;-72
2022/04/22 07:12:13;;;;;;;;;;;7.30;99.90;;;;;;5007665;28;19936;-73
2022/04/22 07:14:42;;;;;;;;;;;7.50;99.90;;;;;;5010177;28;19926;-73
2022/04/22 07:17:14;;;;;;;;;;;7.60;99.90;;;;;;5006783;28;20016;-72
2022/04/22 07:19:45;;;;;;;;;;;7.80;99.90;;;;;;5007672;28;19932;-72
2022/04/22 07:22:17;;;;;;;;;;;8.00;99.90;;;;;;5031446;28;19931;-72
2022/04/22 07:24:44;;;;;;;;;;;8.10;99.90;;;;;;5009847;28;19929;-72
2022/04/22 07:27:17;;;;;;;;;;;8.20;99.90;;;;;;4994987;28;19926;-72
2022/04/22 07:29:50;;;;;;;;;;;8.30;99.90;;;;;;5008879;28;19945;-72
2022/04/22 07:32:16;;;;;;;;;;;8.50;99.90;;;;;;5008864;28;19930;-72
2022/04/22 07:34:43;;;;;;;;;;;8.70;99.90;;;;;;5008987;28;20028;-73
2022/04/22 07:37:15;;;;;;;;;;;8.80;99.90;;;;;;5006991;28;19929;-72
2022/04/22 07:39:42;;;;;;;;;;;8.90;99.90;;;;;;5003174;28;19926;-70
2022/04/22 07:42:18;;;;;;;;;;;9.10;99.90;;;;;;5005109;28;19929;-72
2022/04/22 07:47:42;;;;;;;;;;;9.30;99.90;;;;;;5006652;28;19932;-71
2022/04/22 07:50:14;;;;;;;;;;;9.40;99.90;;;;;;5008051;28;19930;-72
2022/04/22 07:52:46;;;;;;;;;;;9.60;99.90;;;;;;5004981;28;19929;-72
2022/04/22 07:55:18;;;;;;;;;;;9.70;99.90;;;;;;5006318;28;20451;-72
2022/04/22 07:57:49;;;;;;;;;;;9.80;99.90;;;;;;4992377;28;19929;-72
2022/04/22 08:00:21;;;;;;;;;;;9.80;99.90;;;;;;5007206;28;19926;-72
2022/04/22 08:02:52;;;;;;;;;;;9.90;99.90;;;;;;5008033;28;19930;-72
2022/04/22 08:05:24;;;;;;;;;;;10.00;99.90;;;;;;5005596;28;20398;-70
2022/04/22 08:07:56;;;;;;;;;;;10.10;99.90;;;;;;5005727;28;19933;-72
2022/04/22 08:10:27;;;;;;;;;;;10.20;99.90;;;;;;5005236;28;20370;-72
2022/04/22 08:12:59;;;;;;;;;;;10.40;99.90;;;;;;5005454;28;20309;-72
2022/04/22 08:15:32;;;;;;;;;;;10.40;99.90;;;;;;5004362;28;19972;-71
2022/04/22 08:18:04;;;;;;;;;;;10.50;99.90;;;;;;5005326;28;20279;-70
2022/04/22 08:20:36;;;;;;;;;;;10.60;99.90;;;;;;5004587;28;20449;-71
2022/04/22 08:23:07;;;;;;;;;;;10.60;99.90;;;;;;5003111;28;19936;-72
2022/04/22 08:25:41;;;;;;;;;;;10.60;99.90;;;;;;5001151;28;20443;-72
2022/04/22 08:28:12;;;;;;;;;;;10.70;99.90;;;;;;5002768;28;19932;-72
2022/04/22 08:30:44;;;;;;;;;;;10.90;99.90;;;;;;5006289;28;19929;-71
2022/04/22 08:33:16;;;;;;;;;;;11.00;99.90;;;;;;5017576;28;20017;-71
2022/04/22 08:35:48;;;;;;;;;;;11.10;99.90;;;;;;5006932;28;19937;-72
2022/04/22 08:38:19;;;;;;;;;;;11.20;99.90;;;;;;5001478;28;19934;-71
2022/04/22 08:40:51;;;;;;;;;;;11.30;99.90;;;;;;5006173;28;19978;-71
2022/04/22 08:43:23;;;;;;;;;;;11.40;99.90;;;;;;5002331;28;19933;-71
2022/04/22 08:45:55;;;;;;;;;;;11.50;99.90;;;;;;5005002;28;19935;-72
2022/04/22 08:51:19;;;;;;;;;;;11.60;99.90;;;;;;5020497;28;19925;-72
2022/04/22 08:53:47;;;;;;;;;;;11.60;99.90;;;;;;5006413;28;19929;-73
2022/04/22 08:56:19;;;;;;;;;;;11.70;99.90;;;;;;5000837;28;19926;-73
2022/04/22 08:58:51;;;;;;;;;;;11.80;99.90;;;;;;5005400;28;19929;-72
2022/04/22 09:01:22;;;;;;;;;;;11.90;99.90;;;;;;5001328;28;20697;-71
2022/04/22 09:03:54;;;;;;;;;;;12.00;99.90;;;;;;5007747;28;19956;-71
2022/04/22 09:06:26;;;;;;;;;;;12.10;99.90;;;;;;4995636;28;19936;-72
2022/04/22 09:08:55;;;;;;;;;;;12.00;99.90;;;;;;5002250;28;20099;-71
2022/04/22 09:11:29;;;;;;;;;;;12.10;99.90;;;;;;5002711;28;19937;-71
2022/04/22 09:14:01;;;;;;;;;;;12.10;99.90;;;;;;5003192;28;19926;-72
2022/04/22 09:16:33;;;;;;;;;;;12.10;99.90;;;;;;5017434;28;19925;-69
2022/04/22 09:19:05;;;;;;;;;;;12.10;99.90;;;;;;5002262;28;20024;-68
2022/04/22 09:21:38;;;;;;;;;;;12.10;99.90;;;;;;5006845;28;19937;-70
2022/04/22 09:24:13;;;;;;;;;;;12.10;99.90;;;;;;5008532;28;19937;-69
2022/04/22 09:26:40;;;;;;;;;;;12.20;99.90;;;;;;5009239;28;19926;-70
2022/04/22 09:29:12;;;;;;;;;;;12.20;99.90;;;;;;5003842;28;20406;-69
2022/04/22 09:31:46;;;;;;;;;;;12.30;99.90;;;;;;5006655;28;19925;-68
2022/04/22 09:34:31;;;;;;;;;;;12.50;99.90;;;;;;5008835;28;19929;-69
2022/04/22 09:42:52;;;;;;;;;;;12.90;99.90;;;;;;4990210;28;19929;-71
2022/04/22 09:45:37;;;;;;;;;;;13.00;99.90;;;;;;5006929;28;19934;-70
2022/04/22 09:48:13;;;;;;;;;;;13.00;99.90;;;;;;5007723;28;19934;-71
2022/04/22 09:50:52;;;;;;;;;;;13.20;99.90;;;;;;5009822;28;19932;-72
2022/04/22 09:53:33;;;;;;;;;;;13.30;99.90;;;;;;5003905;28;19925;-69
2022/04/22 09:56:05;;;;;;;;;;;13.40;99.90;;;;;;5010822;28;19936;-69
2022/04/22 09:58:37;;;;;;;;;;;13.50;99.90;;;;;;5009598;28;19947;-69
2022/04/22 10:01:09;;;;;;;;;;;13.60;99.90;;;;;;5011145;28;19961;-71
2022/04/22 10:03:41;;;;;;;;;;;13.70;99.90;;;;;;5020858;28;19936;-69
2022/04/22 10:06:13;;;;;;;;;;;13.80;99.90;;;;;;5012475;28;19937;-69
2022/04/22 10:08:46;;;;;;;;;;;13.80;99.90;;;;;;5005926;28;19925;-69
2022/04/22 10:11:18;;;;;;;;;;;13.80;99.90;;;;;;4992895;28;19937;-71
2022/04/22 10:13:51;;;;;;;;;;;13.90;99.90;;;;;;5007485;28;19929;-72
2022/04/22 10:16:22;;;;;;;;;;;13.90;99.90;;;;;;5002004;28;19932;-71
2022/04/22 10:18:54;;;;;;;;;;;13.90;99.90;;;;;;5006824;28;19981;-71
2022/04/22 10:21:26;;;;;;;;;;;14.00;99.90;;;;;;5008980;28;19926;-71
2022/04/22 10:23:58;;;;;;;;;;;14.00;99.90;;;;;;5005776;28;19933;-71
2022/04/22 10:26:30;;;;;;;;;;;14.00;99.90;;;;;;5004685;28;20484;-71
2022/04/22 10:29:03;;;;;;;;;;;14.00;99.90;;;;;;5005249;28;19929;-71
2022/04/22 10:31:34;;;;;;;;;;;14.00;99.90;;;;;;5007636;28;19930;-71
2022/04/22 10:34:07;;;;;;;;;;;13.90;99.90;;;;;;5004859;28;19926;-71
2022/04/22 10:36:40;;;;;;;;;;;13.90;99.90;;;;;;5008271;28;19934;-71
2022/04/22 10:39:30;;;;;;;;;;;13.90;99.90;;;;;;5008569;28;19932;-71
2022/04/22 10:42:08;;;;;;;;;;;13.90;99.90;;;;;;5006089;28;20408;-71
2022/04/22 10:47:38;;;;;;;;;;;14.20;99.90;;;;;;5007533;28;19929;-71
2022/04/22 10:50:31;;;;;;;;;;;14.30;99.90;;;;;;5005524;28;19948;-71
2022/04/22 10:53:08;;;;;;;;;;;14.40;99.90;;;;;;5006027;28;19932;-71
2022/04/22 10:55:40;;;;;;;;;;;14.40;99.90;;;;;;4997117;28;19929;-72
2022/04/22 10:58:12;;;;;;;;;;;14.30;99.90;;;;;;5009205;28;19937;-71
2022/04/22 11:00:44;;;;;;;;;;;14.40;99.90;;;;;;5006923;28;19933;-71
2022/04/22 11:03:27;;;;;;;;;;;14.50;99.90;;;;;;5005259;28;20386;-71
2022/04/22 11:05:59;;;;;;;;;;;14.60;99.90;;;;;;5007600;28;19925;-71
2022/04/22 11:08:32;;;;;;;;;;;14.70;99.90;;;;;;5007540;28;19933;-71
2022/04/22 11:11:17;;;;;;;;;;;14.80;99.90;;;;;;5005611;28;19945;-71
2022/04/22 11:13:50;;;;;;;;;;;15.00;99.90;;;;;;5009731;28;19929;-71
2022/04/22 11:16:22;;;;;;;;;;;15.20;99.90;;;;;;5011057;28;20348;-72
2022/04/22 11:19:13;;;;;;;;;;;15.30;99.90;;;;;;5007141;28;20028;-71
2022/04/22 11:21:52;;;;;;;;;;;15.60;99.90;;;;;;5026018;28;19926;-71
2022/04/22 11:24:24;;;;;;;;;;;15.90;99.90;;;;;;5004537;28;19933;-71
2022/04/22 11:27:22;;;;;;;;;;;16.00;99.90;;;;;;5008042;28;20024;-71
2022/04/22 11:29:54;;;;;;;;;;;16.10;99.90;;;;;;5005049;28;20338;-71
2022/04/22 11:32:27;;;;;;;;;;;16.10;99.90;;;;;;5007941;28;20401;-71
2022/04/22 11:35:18;;;;;;;;;;;16.10;99.90;;;;;;5009478;28;19933;-71
2022/04/22 11:37:45;;;;;;;;;;;16.10;99.90;;;;;;5026528;28;19935;-71
2022/04/22 11:40:19;;;;;;;;;;;16.10;99.90;;;;;;5008034;28;19936;-71
2022/04/22 11:42:54;;;;;;;;;;;16.10;99.90;;;;;;5022158;28;19933;-70
2022/04/22 11:45:26;;;;;;;;;;;16.20;99.90;;;;;;5004449;28;20024;-70
2022/04/22 11:48:05;;;;;;;;;;;16.40;99.90;;;;;;5004349;28;19929;-73
2022/04/22 11:50:38;;;;;;;;;;;16.50;99.50;;;;;;5022657;28;19937;-70
2022/04/22 11:53:14;;;;;;;;;;;16.60;98.90;;;;;;5007346;28;19929;-70
2022/04/22 11:55:47;;;;;;;;;;;16.70;99.00;;;;;;4998283;28;19929;-70
2022/04/22 11:58:28;;;;;;;;;;;16.90;99.60;;;;;;4994743;28;20154;-70
2022/04/22 12:06:42;;;;;;;;;;;17.30;97.00;;;;;;4999536;28;19930;-70
2022/04/22 12:09:14;;;;;;;;;;;17.50;96.70;;;;;;5003510;28;19933;-70
2022/04/22 12:11:49;;;;;;;;;;;17.60;96.50;;;;;;4998228;28;19938;-70
2022/04/22 12:14:25;;;;;;;;;;;17.70;96.00;;;;;;5002309;28;19929;-70
2022/04/22 12:17:00;;;;;;;;;;;17.50;94.80;;;;;;5008731;28;19936;-70
2022/04/22 12:19:32;;;;;;;;;;;17.30;95.40;;;;;;5001449;28;19936;-70
2022/04/22 12:22:04;;;;;;;;;;;17.20;95.20;;;;;;4994146;28;20410;-70
2022/04/22 12:24:36;;;;;;;;;;;17.10;95.80;;;;;;5000566;28;19932;-70
2022/04/22 12:27:20;;;;;;;;;;;17.10;95.30;;;;;;5009219;28;19932;-70
2022/04/22 12:30:02;;;;;;;;;;;17.20;95.50;;;;;;5009480;28;19925;-70
2022/04/22 12:32:36;;;;;;;;;;;17.20;95.40;;;;;;4995230;28;19937;-70
2022/04/22 12:35:15;;;;;;;;;;;17.20;95.20;;;;;;4997791;28;20302;-70
2022/04/22 12:37:50;;;;;;;;;;;17.20;95.40;;;;;;4996258;28;19926;-70
2022/04/22 12:40:22;;;;;;;;;;;17.20;95.30;;;;;;4993972;28;20485;-70
2022/04/22 12:42:49;;;;;;;;;;;17.10;94.70;;;;;;5005024;28;19953;-70
2022/04/22 12:53:51;;;;;;;;;;;17.50;94.80;;;;;;4999550;28;19926;-70
2022/04/22 12:56:26;;;;;;;;;;;17.70;94.60;;;;;;4993871;28;19926;-70
2022/04/22 12:59:02;;;;;;;;;;;17.80;93.30;;;;;;5002039;28;19970;-70
2022/04/22 13:01:36;;;;;;;;;;;17.90;93.20;;;;;;5006809;28;19936;-70
2022/04/22 13:04:19;;;;;;;;;;;18.00;93.20;;;;;;5000898;28;19925;-70
2022/04/22 13:06:51;;;;;;;;;;;18.10;93.50;;;;;;5001224;28;19926;-70
2022/04/22 13:09:23;;;;;;;;;;;18.10;92.40;;;;;;5000935;28;19936;-69
2022/04/22 13:11:55;;;;;;;;;;;17.90;92.70;;;;;;4998682;28;19941;-70
2022/04/22 13:14:27;;;;;;;;;;;17.90;92.90;;;;;;4994575;28;19926;-70
2022/04/22 13:17:00;;;;;;;;;;;17.90;93.00;;;;;;5003348;28;19936;-70
2022/04/22 13:19:32;;;;;;;;;;;17.90;93.20;;;;;;5002180;28;19926;-70
2022/04/22 13:22:03;;;;;;;;;;;18.00;93.10;;;;;;5003147;28;20776;-70
2022/04/22 13:24:35;;;;;;;;;;;18.00;92.20;;;;;;5008568;28;19932;-70
2022/04/22 13:27:07;;;;;;;;;;;18.00;92.40;;;;;;5008404;28;19937;-70
2022/04/22 13:29:39;;;;;;;;;;;18.10;92.80;;;;;;4995512;28;20389;-70
2022/04/22 13:32:10;;;;;;;;;;;18.10;92.20;;;;;;4998929;28;20406;-70
2022/04/22 13:34:42;;;;;;;;;;;18.10;92.20;;;;;;5003788;28;19953;-70
2022/04/22 13:37:13;;;;;;;;;;;18.10;91.40;;;;;;5002012;28;19933;-70
2022/04/22 13:39:45;;;;;;;;;;;18.10;90.90;;;;;;5001892;28;20427;-70
2022/04/22 13:42:18;;;;;;;;;;;18.10;91.10;;;;;;5021756;28;19932;-70
2022/04/22 13:53:20;;;;;;;;;;;18.40;91.40;;;;;;4994306;28;19930;-70
2022/04/22 13:55:52;;;;;;;;;;;18.60;90.80;;;;;;5001422;28;19941;-70
2022/04/22 13:58:23;;;;;;;;;;;18.80;89.10;;;;;;5005961;28;19926;-70
2022/04/22 14:00:55;;;;;;;;;;;19.00;88.20;;;;;;5005672;28;19963;-70
2022/04/22 14:03:27;;;;;;;;;;;19.10;87.40;;;;;;5004653;28;20286;-70
2022/04/22 14:05:59;;;;;;;;;;;19.20;87.70;;;;;;5000802;28;19929;-70
2022/04/22 14:08:30;;;;;;;;;;;19.30;85.20;;;;;;4997204;28;20303;-70
2022/04/22 14:11:02;;;;;;;;;;;19.50;86.10;;;;;;4992430;28;20420;-70
2022/04/22 14:13:34;;;;;;;;;;;19.60;84.20;;;;;;4998372;28;19932;-70
2022/04/22 14:16:01;;;;;;;;;;;19.40;83.00;;;;;;5006695;28;19925;-70
2022/04/22 14:18:35;;;;;;;;;;;19.20;82.90;;;;;;5003257;28;19929;-70
2022/04/22 14:21:07;;;;;;;;;;;19.10;83.50;;;;;;4994308;28;19965;-70
2022/04/22 14:23:38;;;;;;;;;;;19.10;84.70;;;;;;4998637;28;19935;-70
2022/04/22 14:26:12;;;;;;;;;;;19.20;83.10;;;;;;5010730;28;19937;-70
2022/04/22 14:28:44;;;;;;;;;;;19.30;83.60;;;;;;5004827;28;19926;-70
2022/04/22 14:31:15;;;;;;;;;;;19.40;82.50;;;;;;5007921;28;19932;-71
2022/04/22 14:33:47;;;;;;;;;;;19.70;82.10;;;;;;4999616;28;20013;-70
2022/04/22 14:36:19;;;;;;;;;;;20.00;80.60;;;;;;5008988;28;19935;-70
2022/04/22 14:38:50;;;;;;;;;;;20.30;79.20;;;;;;5007256;28;19929;-70
2022/04/22 14:41:24;;;;;;;;;;;20.50;78.60;;;;;;5011554;28;19996;-70
2022/04/22 14:43:56;;;;;;;;;;;20.70;77.30;;;;;;5005021;28;19926;-70
2022/04/22 14:46:27;;;;;;;;;;;20.80;75.20;;;;;;5007759;28;19983;-70
2022/04/22 14:48:59;;;;;;;;;;;20.90;76.80;;;;;;5008953;28;19925;-70
2022/04/22 14:51:30;;;;;;;;;;;21.10;75.80;;;;;;5005943;28;20286;-70
2022/04/22 14:54:02;;;;;;;;;;;21.20;74.00;;;;;;5009269;28;19929;-72
2022/04/22 14:56:34;;;;;;;;;;;21.30;72.50;;;;;;5006200;28;20320;-70
2022/04/22 14:59:06;;;;;;;;;;;21.40;72.10;;;;;;5008699;28;19926;-71
2022/04/22 15:01:37;;;;;;;;;;;21.50;72.40;;;;;;5008912;28;19926;-70
2022/04/22 15:04:09;;;;;;;;;;;21.50;69.70;;;;;;5000966;28;19925;-71
2022/04/22 15:06:41;;;;;;;;;;;21.50;70.50;;;;;;5005668;28;20020;-70
2022/04/22 15:09:12;;;;;;;;;;;21.60;71.00;;;;;;5005915;28;19931;-70
2022/04/22 15:11:44;;;;;;;;;;;21.80;70.90;;;;;;5009804;28;19936;-72
2022/04/22 15:14:16;;;;;;;;;;;22.00;69.80;;;;;;5024583;28;19926;-71
2022/04/22 15:16:48;;;;;;;;;;;22.10;67.50;;;;;;5007476;28;19925;-71
2022/04/22 15:25:00;;;;;;;;;;;22.40;67.00;;;;;;5003822;28;19965;-71
2022/04/22 15:27:27;;;;;;;;;;;22.50;66.00;;;;;;5008390;28;20020;-71
2022/04/22 15:29:54;;;;;;;;;;;22.60;65.80;;;;;;5007489;28;20011;-71
2022/04/22 15:32:21;;;;;;;;;;;22.50;64.70;;;;;;5005031;28;20020;-71
2022/04/22 15:34:47;;;;;;;;;;;22.80;64.60;;;;;;5008934;28;19930;-71
2022/04/22 15:37:14;;;;;;;;;;;22.90;62.80;;;;;;5010242;28;20024;-71
2022/04/22 15:39:41;;;;;;;;;;;23.10;62.90;;;;;;5010722;28;19929;-71
2022/04/22 15:42:10;;;;;;;;;;;23.30;62.50;;;;;;5009840;28;19932;-71
2022/04/22 15:44:44;;;;;;;;;;;23.60;62.60;;;;;;4992419;28;19925;-71
2022/04/22 15:47:16;;;;;;;;;;;23.70;60.40;;;;;;5009328;28;19932;-71
2022/04/22 15:49:47;;;;;;;;;;;23.60;60.10;;;;;;5010348;28;19934;-70
2022/04/22 15:52:19;;;;;;;;;;;23.30;60.20;;;;;;5009321;28;19937;-71
2022/04/22 15:54:51;;;;;;;;;;;23.00;60.60;;;;;;5010957;28;20366;-71
2022/04/22 15:57:22;;;;;;;;;;;23.10;61.30;;;;;;5008075;28;20305;-71
2022/04/22 15:59:54;;;;;;;;;;;23.00;61.20;;;;;;5004544;28;19996;-71
2022/04/22 16:02:25;;;;;;;;;;;22.60;61.30;;;;;;5009607;28;19926;-71
2022/04/22 16:04:59;;;;;;;;;;;22.50;61.60;;;;;;5002194;28;19936;-71
2022/04/22 16:07:31;;;;;;;;;;;22.60;61.70;;;;;;5010939;28;19933;-71
2022/04/22 16:10:02;;;;;;;;;;;22.40;62.40;;;;;;5010658;28;20283;-71
2022/04/22 16:15:26;;;;;;;;;;;21.60;63.20;;;;;;5006723;28;19930;-71
2022/04/22 16:17:57;;;;;;;;;;;21.60;64.10;;;;;;4987434;28;20492;-70